Terminal Aerodrome Forecast
Issued by NWS

Home | Current Version | Previous Version | Text Only | Print | Product List | Glossary On
Versions: 1 2 3 4 5 6 7 8 9 10 11 12 13 14 15 16 17 18 19 20 21 22 23 24 25 26
000
FTUS45 KRIW 240520
TAFBPI
TAF
KBPI 240520Z 2406/2506 VRB06KT P6SM SCT120
     FM240900 32007KT P6SM SCT050 BKN090
     FM241400 29009KT 4SM -SN SCT010 BKN020
     FM242000 31018G26KT 4SM -SN BKN015
     FM250100 30013G21KT 6SM -SN SCT015 BKN040=

USA.gov is the U.S. government's official web portal to all federal, state and local government web resources and services.